Time;durP1;ratioP1;P1;durP2;ratioP2;P2;SDS_P1;SDS_P2;PMS_P1;PMS_P2;Temp;Humidity;BMP_temperature;BMP_pressure;BME280_temperature;BME280_humidity;BME280_pressure;Samples;Min_cycle;Max_cycle;Signal;HPM_P1;HPM_P2
2022/10/31 00:00:25;;;;;;;1.76;1.23;;;;;;;10.35;70.94;100020.95;455876;116;923174;-75
2022/10/31 00:01:35;;;;;;;4.79;1.53;;;;;;;10.36;70.96;100023.45;455797;116;922919;-73
2022/10/31 00:02:38;;;;;;;2.53;1.49;;;;;;;10.35;70.88;100019.06;455669;116;922549;-77
2022/10/31 00:03:41;;;;;;;3.94;1.46;;;;;;;10.35;70.88;100015.50;455763;116;922670;-75
2022/10/31 00:04:44;;;;;;;2.54;1.24;;;;;;;10.34;70.90;100020.12;455886;116;923074;-75
2022/10/31 00:05:49;;;;;;;3.49;1.84;;;;;;;10.35;70.89;100023.67;455806;116;922643;-76
2022/10/31 00:06:52;;;;;;;3.04;1.42;;;;;;;10.34;70.91;100013.83;455758;116;922854;-76
2022/10/31 00:07:56;;;;;;;2.79;1.61;;;;;;;10.34;70.96;100013.83;455804;116;922984;-76
2022/10/31 00:09:01;;;;;;;2.44;1.49;;;;;;;10.34;70.98;100013.83;455638;116;922666;-74
2022/10/31 00:10:05;;;;;;;2.93;1.24;;;;;;;10.34;71.01;100013.83;456440;116;922564;-75
2022/10/31 00:11:09;;;;;;;2.26;1.55;;;;;;;10.35;71.04;100010.89;457360;116;922662;-74
2022/10/31 00:12:13;;;;;;;2.51;1.63;;;;;;;10.36;71.10;100009.84;457283;116;923013;-77
2022/10/31 00:13:16;;;;;;;2.51;1.52;;;;;;;10.37;71.06;100007.91;457551;116;922544;-76
2022/10/31 00:14:19;;;;;;;2.99;1.52;;;;;;;10.36;71.00;100001.66;457494;116;922733;-76
2022/10/31 00:15:22;;;;;;;2.42;1.56;;;;;;;10.37;71.11;100005.19;457446;116;922938;-76
2022/10/31 00:16:26;;;;;;;2.21;1.62;;;;;;;10.36;71.12;100003.55;457452;116;923467;-75
2022/10/31 00:17:29;;;;;;;3.52;1.89;;;;;;;10.35;71.08;99999.98;457296;116;922531;-75
2022/10/31 00:18:32;;;;;;;2.24;1.36;;;;;;;10.35;71.10;100008.16;457365;116;930348;-76
2022/10/31 00:19:35;;;;;;;2.69;1.91;;;;;;;10.35;71.08;99996.42;457359;116;922880;-74
2022/10/31 00:20:38;;;;;;;2.59;1.58;;;;;;;10.35;71.10;99999.16;457382;116;923032;-78
2022/10/31 00:21:41;;;;;;;2.26;1.51;;;;;;;10.34;71.09;99998.31;457344;116;922530;-76
2022/10/31 00:22:44;;;;;;;2.83;1.50;;;;;;;10.33;71.07;99990.36;457459;116;922518;-75
2022/10/31 00:23:48;;;;;;;2.75;1.72;;;;;;;10.32;71.15;99991.41;457404;116;922558;-76
2022/10/31 00:24:51;;;;;;;4.29;1.71;;;;;;;10.31;71.18;99993.30;457293;116;922512;-76
2022/10/31 00:25:56;;;;;;;2.17;1.44;;;;;;;10.30;71.12;99983.48;457457;116;923549;-76
2022/10/31 00:26:59;;;;;;;4.32;1.49;;;;;;;10.30;71.18;99990.83;456969;116;922537;-75
2022/10/31 00:28:05;;;;;;;2.21;1.38;;;;;;;10.29;71.13;99992.72;457417;116;923033;-76
2022/10/31 00:29:08;;;;;;;3.26;1.45;;;;;;;10.28;71.22;99996.50;457247;116;922788;-76
2022/10/31 00:30:12;;;;;;;2.44;1.61;;;;;;;10.29;71.24;99989.16;457889;115;922558;-76
2022/10/31 00:31:15;;;;;;;2.36;1.29;;;;;;;10.27;71.25;99986.66;458474;115;922862;-76
2022/10/31 00:32:19;;;;;;;2.52;1.60;;;;;;;10.28;71.35;99988.33;457685;115;922870;-76
2022/10/31 00:33:22;;;;;;;3.44;1.60;;;;;;;10.27;71.29;99983.93;457431;116;922421;-75
2022/10/31 00:34:25;;;;;;;4.32;1.59;;;;;;;10.27;71.27;99988.55;450638;116;922975;-76
2022/10/31 00:35:29;;;;;;;3.03;1.87;;;;;;;10.25;71.33;99983.34;449708;118;922999;-76
2022/10/31 00:36:32;;;;;;;2.37;1.60;;;;;;;10.26;71.40;99981.42;449708;118;923071;-76
2022/10/31 00:37:35;;;;;;;2.42;1.46;;;;;;;10.26;71.42;99995.05;449664;118;923106;-75
2022/10/31 00:38:38;;;;;;;1.92;1.21;;;;;;;10.26;71.39;99992.32;449634;118;922791;-76
2022/10/31 00:39:41;;;;;;;2.77;1.34;;;;;;;10.27;71.50;99975.75;449660;118;922738;-77
2022/10/31 00:40:44;;;;;;;2.87;1.71;;;;;;;10.28;71.45;99982.04;449660;118;922604;-77
2022/10/31 00:41:48;;;;;;;3.16;1.39;;;;;;;10.28;71.42;99979.31;449625;118;923088;-76
2022/10/31 00:42:51;;;;;;;2.23;1.31;;;;;;;10.26;71.43;99973.25;449629;118;922546;-75
2022/10/31 00:43:54;;;;;;;3.96;1.36;;;;;;;10.24;71.39;99975.39;449634;118;922665;-76
2022/10/31 00:44:57;;;;;;;2.49;1.48;;;;;;;10.24;71.37;99978.11;449605;118;922801;-76
2022/10/31 00:46:00;;;;;;;3.20;1.46;;;;;;;10.22;71.46;99975.61;449614;118;922915;-75
2022/10/31 00:47:03;;;;;;;2.62;1.54;;;;;;;10.23;71.44;99979.16;449600;117;922596;-76
2022/10/31 00:48:06;;;;;;;3.18;1.87;;;;;;;10.22;71.51;99975.61;449624;118;922934;-76
2022/10/31 00:49:10;;;;;;;1.79;1.26;;;;;;;10.22;71.53;99978.33;449595;118;922684;-76
2022/10/31 00:50:14;;;;;;;2.17;1.32;;;;;;;10.22;71.57;99975.61;451552;114;922468;-76
2022/10/31 00:51:17;;;;;;;3.77;2.02;;;;;;;10.22;71.57;99975.61;462647;114;922872;-77
2022/10/31 00:52:20;;;;;;;2.89;1.44;;;;;;;10.21;71.57;99973.94;462720;114;923022;-75
2022/10/31 00:53:23;;;;;;;2.78;1.59;;;;;;;10.22;71.58;99972.05;462667;114;922679;-76
2022/10/31 00:54:26;;;;;;;2.12;1.66;;;;;;;10.22;71.60;99972.88;462659;114;923007;-75
2022/10/31 00:55:29;;;;;;;2.81;1.43;;;;;;;10.22;71.59;99975.61;462746;114;922537;-76
2022/10/31 00:56:32;;;;;;;5.71;1.45;;;;;;;10.23;71.65;99968.27;462653;114;922864;-76
2022/10/31 00:57:36;;;;;;;1.47;1.24;;;;;;;10.22;71.66;99961.98;462675;114;922547;-77
2022/10/31 00:58:40;;;;;;;2.49;1.39;;;;;;;10.23;71.64;99960.09;465805;114;922665;-76
2022/10/31 00:59:44;;;;;;;3.32;1.62;;;;;;;10.23;71.66;99962.82;464718;114;930281;-77
2022/10/31 01:00:54;;;;;;;2.52;1.61;;;;;;;10.22;71.70;99961.98;461726;115;923142;-77
2022/10/31 01:01:55;;;;;;;2.14;1.33;;;;;;;10.23;71.70;99958.20;461507;114;923222;-77
2022/10/31 01:02:59;;;;;;;3.33;1.19;;;;;;;10.24;71.64;99954.42;461785;115;923109;-78
2022/10/31 01:04:02;;;;;;;2.20;1.77;;;;;;;10.24;71.62;99959.88;461734;115;922535;-76
2022/10/31 01:05:06;;;;;;;3.11;1.50;;;;;;;10.25;71.61;99953.38;461715;115;930338;-77
2022/10/31 01:06:12;;;;;;;2.85;1.48;;;;;;;10.25;71.59;99953.38;460753;115;922514;-77
2022/10/31 01:07:15;;;;;;;3.07;1.48;;;;;;;10.25;71.64;99953.38;458629;115;922562;-76
2022/10/31 01:08:19;;;;;;;1.75;1.28;;;;;;;10.26;71.56;99948.73;458688;115;922486;-76
2022/10/31 01:09:23;;;;;;;3.34;1.78;;;;;;;10.25;71.59;99944.36;458652;113;930282;-77
2022/10/31 01:10:26;;;;;;;2.49;1.37;;;;;;;10.25;71.53;99945.20;458854;115;922548;-75
2022/10/31 01:11:29;;;;;;;1.92;1.22;;;;;;;10.27;71.61;99947.67;458902;115;923028;-77
2022/10/31 01:12:44;;;;;;;2.62;1.24;;;;;;;10.26;71.60;99951.45;458872;115;922907;-77
2022/10/31 01:13:53;;;;;;;3.17;1.63;;;;;;;10.26;71.59;99951.45;458672;113;922843;-76
2022/10/31 01:14:56;;;;;;;2.83;1.54;;;;;;;10.25;71.58;99950.65;458621;115;922565;-76
2022/10/31 01:16:00;;;;;;;2.62;1.77;;;;;;;10.24;71.50;99939.97;458790;115;922560;-76
2022/10/31 01:17:03;;;;;;;2.40;1.65;;;;;;;10.23;71.53;99947.31;458612;115;922445;-75
2022/10/31 01:18:06;;;;;;;1.93;1.23;;;;;;;10.23;71.55;99941.02;458810;115;923167;-76
2022/10/31 01:19:09;;;;;;;3.73;1.58;;;;;;;10.23;71.49;99949.20;458730;115;923118;-77
2022/10/31 01:20:14;;;;;;;2.62;1.54;;;;;;;10.22;71.54;99947.53;458658;115;922461;-76
2022/10/31 01:21:23;;;;;;;3.15;1.44;;;;;;;10.21;71.58;99943.13;458758;115;923072;-75
2022/10/31 01:22:27;;;;;;;2.16;1.37;;;;;;;10.21;71.53;99946.69;458553;115;922459;-76
2022/10/31 01:23:30;;;;;;;2.37;1.41;;;;;;;10.20;71.59;99938.77;458756;115;922677;-75
2022/10/31 01:24:33;;;;;;;2.31;1.47;;;;;;;10.20;71.62;99947.75;458620;115;922980;-76
2022/10/31 01:25:37;;;;;;;2.51;1.44;;;;;;;10.20;71.54;99939.57;458694;115;922540;-75
2022/10/31 01:26:40;;;;;;;4.05;1.71;;;;;;;10.20;71.54;99931.40;458739;115;922948;-76
2022/10/31 01:27:44;;;;;;;2.85;1.53;;;;;;;10.20;71.58;99933.32;449788;118;922783;-75
2022/10/31 01:28:59;;;;;;;2.80;1.56;;;;;;;10.18;71.58;99938.16;450114;115;922627;-75
2022/10/31 01:30:02;;;;;;;2.33;1.42;;;;;;;10.18;71.55;99924.53;456488;115;922921;-76
2022/10/31 01:31:08;;;;;;;3.47;1.24;;;;;;;10.18;71.63;99924.53;453792;117;923041;-78
2022/10/31 01:32:11;;;;;;;2.92;1.84;;;;;;;10.19;71.68;99934.38;456207;115;930164;-75
2022/10/31 01:33:14;;;;;;;1.52;1.33;;;;;;;10.18;71.53;99930.81;458850;115;922661;-76
2022/10/31 01:34:17;;;;;;;2.66;1.46;;;;;;;10.17;71.50;99931.87;446735;115;922579;-76
2022/10/31 01:35:21;;;;;;;1.96;1.29;;;;;;;10.16;71.57;99935.65;444700;117;922631;-75
2022/10/31 01:36:32;;;;;;;2.24;1.51;;;;;;;10.16;71.53;99929.33;450928;117;922557;-75
2022/10/31 01:37:35;;;;;;;2.43;1.66;;;;;;;10.16;71.53;99932.05;450687;117;923061;-76
2022/10/31 01:38:38;;;;;;;1.90;1.30;;;;;;;10.15;71.54;99933.11;450942;115;923143;-76
2022/10/31 01:39:41;;;;;;;2.87;1.51;;;;;;;10.14;71.55;99940.48;450968;117;922416;-76
2022/10/31 01:40:45;;;;;;;2.92;1.75;;;;;;;10.14;71.59;99931.47;450949;117;922564;-77
2022/10/31 01:41:51;;;;;;;3.65;1.58;;;;;;;10.14;71.59;99937.76;450991;117;922992;-76
2022/10/31 01:42:54;;;;;;;3.08;1.66;;;;;;;10.15;71.58;99935.83;450799;117;922603;-76
2022/10/31 01:44:00;;;;;;;2.31;1.45;;;;;;;10.14;71.57;99937.76;444567;117;922661;-76
2022/10/31 01:45:05;;;;;;;2.45;1.48;;;;;;;10.15;71.64;99938.56;444876;117;922840;-76
2022/10/31 01:46:09;;;;;;;2.46;1.44;;;;;;;10.15;71.58;99939.39;450809;117;922861;-76
2022/10/31 01:47:16;;;;;;;3.16;1.96;;;;;;;10.15;71.63;99936.67;450878;117;923116;-76
2022/10/31 01:48:22;;;;;;;2.23;1.56;;;;;;;10.16;71.59;99937.51;450713;117;922633;-76
2022/10/31 01:49:28;;;;;;;2.76;1.13;;;;;;;10.16;71.55;99929.33;450664;115;922765;-76
2022/10/31 01:50:35;;;;;;;2.46;1.51;;;;;;;10.16;71.64;99930.20;452933;116;922919;-76
2022/10/31 01:51:42;;;;;;;2.17;1.62;;;;;;;10.17;71.55;99928.31;456891;116;922535;-76
2022/10/31 01:52:47;;;;;;;3.59;1.50;;;;;;;10.17;71.54;99931.03;456659;116;922595;-77
2022/10/31 01:53:53;;;;;;;3.03;1.63;;;;;;;10.16;71.46;99919.30;456878;114;922998;-76
2022/10/31 01:55:05;;;;;;;2.76;1.75;;;;;;;10.17;71.59;99920.14;447985;118;922696;-76
2022/10/31 01:56:09;;;;;;;3.46;1.81;;;;;;;10.18;71.53;99913.64;449512;116;922653;-76
2022/10/31 01:57:15;;;;;;;1.52;1.26;;;;;;;10.17;71.54;99910.08;456966;116;922504;-76
2022/10/31 01:58:25;;;;;;;2.61;1.32;;;;;;;10.19;71.60;99912.58;456936;116;922935;-76
2022/10/31 01:59:31;;;;;;;2.82;1.47;;;;;;;10.19;71.52;99920.75;456959;114;922630;-75
2022/10/31 02:00:37;;;;;;;2.52;1.36;;;;;;;10.19;71.50;99913.41;456951;116;922640;-76
2022/10/31 02:01:40;;;;;;;2.11;1.47;;;;;;;10.19;71.54;99915.30;457076;116;922409;-75
2022/10/31 02:02:45;;;;;;;6.98;1.46;;;;;;;10.18;71.61;99906.30;458111;115;922973;-77
2022/10/31 02:03:49;;;;;;;3.79;1.33;;;;;;;10.20;71.55;99906.88;458694;113;922613;-76
2022/10/31 02:04:53;;;;;;;3.27;1.52;;;;;;;10.21;71.59;99910.44;458768;115;922562;-77
2022/10/31 02:05:57;;;;;;;2.86;1.71;;;;;;;10.21;71.59;99910.44;458703;115;923397;-77
2022/10/31 02:07:07;;;;;;;2.94;1.48;;;;;;;10.20;71.49;99915.05;458637;115;922504;-76
2022/10/31 02:08:19;;;;;;;3.55;1.63;;;;;;;10.20;71.41;99914.25;458444;115;922573;-76
2022/10/31 02:09:25;;;;;;;2.73;1.73;;;;;;;10.18;71.40;99909.02;458226;113;923059;-77
2022/10/31 02:10:32;;;;;;;3.99;1.96;;;;;;;10.18;71.42;99909.02;458625;115;922536;-76
2022/10/31 02:11:36;;;;;;;2.85;1.63;;;;;;;10.17;71.41;99910.08;458650;115;922538;-76
2022/10/31 02:12:41;;;;;;;3.25;1.74;;;;;;;10.17;71.44;99906.52;458670;115;922856;-75
2022/10/31 02:13:44;;;;;;;1.89;1.43;;;;;;;10.16;71.53;99897.51;458605;113;930339;-76
2022/10/31 02:14:47;;;;;;;4.42;1.70;;;;;;;10.17;71.48;99903.80;458741;115;930378;-75
2022/10/31 02:15:56;;;;;;;3.37;1.08;;;;;;;10.17;71.52;99906.52;458866;115;922587;-76
2022/10/31 02:16:59;;;;;;;2.77;1.72;;;;;;;10.18;71.46;99910.91;459084;115;923032;-76
2022/10/31 02:18:04;;;;;;;2.88;1.76;;;;;;;10.18;71.45;99902.73;459211;115;922593;-77
2022/10/31 02:19:10;;;;;;;2.38;1.68;;;;;;;10.17;71.49;99907.35;459215;115;922790;-76
2022/10/31 02:20:23;;;;;;;8.53;2.12;;;;;;;10.18;71.55;99903.58;459135;115;922851;-75
2022/10/31 02:21:38;;;;;;;2.61;1.42;;;;;;;10.18;71.55;99898.12;458332;115;922999;-76
2022/10/31 02:22:52;;;;;;;3.29;1.56;;;;;;;10.17;71.46;99899.18;458835;115;922512;-76
2022/10/31 02:24:27;;;;;;;3.93;1.59;;;;;;;10.16;71.47;99894.78;454966;115;922630;-77
2022/10/31 02:25:52;;;;;;;3.80;1.54;;;;;;;10.16;71.50;99896.64;441185;120;923090;-77
2022/10/31 02:27:22;;;;;;;2.72;1.46;;;;;;;10.13;71.58;99897.95;455050;115;922497;-77
2022/10/31 02:28:35;;;;;;;2.27;1.63;;;;;;;10.12;71.61;99895.45;458891;115;922466;-77
2022/10/31 02:29:59;;;;;;;3.17;1.59;;;;;;;10.09;71.62;99895.92;457682;115;930423;-77
2022/10/31 02:31:18;;;;;;;2.31;1.47;;;;;;;10.07;71.71;99898.86;453087;117;922981;-76
2022/10/31 02:32:37;;;;;;;3.68;1.60;;;;;;;10.05;71.84;99893.63;456542;115;922951;-78
2022/10/31 02:33:46;;;;;;;4.07;1.96;;;;;;;10.03;71.82;99892.21;452471;115;922661;-77
2022/10/31 02:34:59;;;;;;;3.78;1.79;;;;;;;10.02;71.93;99902.27;459722;113;922725;-77
2022/10/31 02:36:18;;;;;;;1.44;1.22;;;;;;;10.02;71.91;99895.98;467319;113;922558;-76
2022/10/31 02:37:40;;;;;;;2.77;1.49;;;;;;;10.02;71.94;99901.44;442326;119;922584;-74
2022/10/31 02:38:54;;;;;;;3.40;1.83;;;;;;;10.12;72.01;99896.28;480625;110;946720;-76
2022/10/31 02:40:24;;;;;;;3.41;1.61;;;;;;;10.00;71.98;99892.66;463733;114;922675;-77
2022/10/31 02:41:54;;;;;;;2.06;1.43;;;;;;;9.99;72.11;99893.70;465367;114;922702;-76
2022/10/31 02:43:04;;;;;;;1.89;1.22;;;;;;;9.96;72.08;99899.63;464837;114;922527;-76
2022/10/31 02:44:20;;;;;;;2.87;1.34;;;;;;;9.95;72.13;99887.06;464978;114;922729;-75
2022/10/31 02:45:32;;;;;;;2.53;1.57;;;;;;;9.94;72.19;99894.39;465179;114;930494;-75
2022/10/31 02:46:51;;;;;;;2.56;1.22;;;;;;;9.94;72.24;99890.83;465144;114;922480;-76
2022/10/31 02:47:57;;;;;;;2.12;1.66;;;;;;;9.94;72.33;99888.95;465349;114;923088;-76
2022/10/31 02:49:04;;;;;;;1.76;1.42;;;;;;;9.94;72.32;99893.56;465311;113;922589;-76
2022/10/31 02:50:11;;;;;;;4.01;1.49;;;;;;;9.93;72.20;99883.72;464934;114;923027;-76
2022/10/31 02:51:15;;;;;;;2.45;1.43;;;;;;;9.93;72.26;99891.89;461595;113;923232;-76
2022/10/31 02:52:20;;;;;;;2.77;1.48;;;;;;;9.91;72.30;99883.97;461668;115;922536;-77
2022/10/31 02:53:24;;;;;;;2.75;1.62;;;;;;;9.93;72.32;99891.89;461542;115;922741;-76
2022/10/31 02:54:28;;;;;;;3.15;1.66;;;;;;;9.93;72.32;99889.16;461610;115;922760;-76
2022/10/31 02:55:38;;;;;;;2.06;1.55;;;;;;;9.93;72.31;99891.89;461562;115;922838;-77
2022/10/31 02:56:42;;;;;;;2.61;1.57;;;;;;;9.93;72.28;99900.06;461551;115;930339;-76
2022/10/31 02:57:45;;;;;;;2.46;1.29;;;;;;;9.92;72.34;99907.39;461709;114;922859;-76
2022/10/31 02:58:52;;;;;;;3.19;1.94;;;;;;;9.90;72.33;99898.64;463287;112;930356;-76
2022/10/31 02:59:58;;;;;;;2.43;1.54;;;;;;;9.90;72.31;99886.91;465274;114;922473;-76
2022/10/31 03:01:14;;;;;;;2.90;1.43;;;;;;;9.89;72.39;99890.69;464794;114;922549;-76
2022/10/31 03:02:54;;;;;;;3.06;1.73;;;;;;;9.87;72.45;99892.80;465319;114;922648;-76
2022/10/31 03:04:31;;;;;;;3.22;1.59;;;;;;;9.87;72.44;99898.23;465342;114;922641;-76
2022/10/31 03:05:52;;;;;;;1.81;1.32;;;;;;;9.85;72.60;99897.66;452258;116;922712;-78
2022/10/31 03:07:01;;;;;;;5.16;1.85;;;;;;;9.82;72.59;99898.09;451936;117;922815;-77
2022/10/31 03:08:42;;;;;;;2.90;1.63;;;;;;;9.89;72.68;99896.97;482357;110;946819;-75
2022/10/31 03:09:55;;;;;;;3.03;1.72;;;;;;;9.77;72.67;99892.49;473755;112;922452;-75
2022/10/31 03:11:01;;;;;;;2.33;1.40;;;;;;;9.74;72.78;99896.52;472635;112;922920;-74
2022/10/31 03:12:13;;;;;;;1.96;1.38;;;;;;;9.72;72.82;99895.90;473849;112;922507;-76
2022/10/31 03:13:32;;;;;;;1.99;1.46;;;;;;;9.71;72.81;99905.12;473073;112;922373;-75
2022/10/31 03:14:42;;;;;;;2.09;1.41;;;;;;;9.71;72.92;99890.67;473808;112;922942;-75
2022/10/31 03:15:48;;;;;;;3.04;1.55;;;;;;;9.69;72.94;99887.37;473873;112;922484;-75
2022/10/31 03:16:55;;;;;;;3.54;1.43;;;;;;;9.68;72.98;99897.42;465362;114;922511;-76
2022/10/31 03:18:10;;;;;;;2.20;1.43;;;;;;;9.67;73.02;99879.41;465349;114;922552;-75
2022/10/31 03:19:21;;;;;;;3.77;1.60;;;;;;;9.65;73.11;99888.88;465346;114;922544;-76
2022/10/31 03:20:29;;;;;;;2.57;1.32;;;;;;;9.63;73.10;99881.77;464861;114;922647;-76
2022/10/31 03:21:44;;;;;;;3.41;1.71;;;;;;;9.62;73.12;99890.98;464464;114;930198;-75
2022/10/31 03:22:47;;;;;;;2.38;1.40;;;;;;;9.62;73.22;99890.16;465365;114;922581;-76
2022/10/31 03:23:53;;;;;;;3.27;1.45;;;;;;;9.62;73.26;99879.27;465557;114;922746;-76
2022/10/31 03:24:57;;;;;;;3.94;1.67;;;;;;;9.62;73.26;99881.98;465330;114;922572;-76
2022/10/31 03:26:04;;;;;;;2.53;1.65;;;;;;;9.63;73.27;99872.77;465378;114;923443;-76
2022/10/31 03:27:10;;;;;;;2.73;1.55;;;;;;;9.62;73.23;99877.38;465277;114;930788;-76
2022/10/31 03:28:17;;;;;;;2.68;1.21;;;;;;;9.62;73.21;99869.21;465383;114;922572;-76
2022/10/31 03:29:23;;;;;;;3.82;1.89;;;;;;;9.60;73.23;99871.31;465342;114;922767;-76
2022/10/31 03:30:27;;;;;;;4.39;1.81;;;;;;;9.58;73.34;99876.17;465347;114;922892;-77
2022/10/31 03:31:41;;;;;;;3.06;1.40;;;;;;;9.57;73.35;99884.55;465296;114;922674;-76
2022/10/31 03:32:54;;;;;;;4.65;1.66;;;;;;;9.56;73.45;99883.72;472002;112;923056;-75
2022/10/31 03:34:00;;;;;;;3.68;1.48;;;;;;;9.55;73.42;99882.05;469205;112;922614;-75
2022/10/31 03:35:08;;;;;;;2.42;1.51;;;;;;;9.54;73.47;99884.98;465400;114;922502;-75
2022/10/31 03:36:14;;;;;;;2.73;1.78;;;;;;;9.54;73.50;99884.98;465388;114;923093;-78
2022/10/31 03:37:20;;;;;;;3.41;1.87;;;;;;;9.54;73.51;99887.70;456411;116;922810;-76
2022/10/31 03:38:24;;;;;;;2.46;1.43;;;;;;;9.53;73.53;99875.19;465325;114;922485;-76
2022/10/31 03:39:30;;;;;;;2.22;1.79;;;;;;;9.52;73.58;99879.79;456431;116;923160;-77
2022/10/31 03:40:37;;;;;;;3.62;2.01;;;;;;;9.52;73.53;99882.52;465377;114;923055;-76
2022/10/31 03:41:44;;;;;;;3.65;1.48;;;;;;;9.51;73.65;99872.68;465305;114;922544;-76
2022/10/31 03:42:52;;;;;;;2.43;1.59;;;;;;;9.50;73.65;99875.61;465317;114;922545;-75
2022/10/31 03:44:07;;;;;;;2.59;1.62;;;;;;;9.49;73.71;99880.22;465020;114;922645;-76
2022/10/31 03:45:14;;;;;;;2.36;1.68;;;;;;;9.48;73.79;99878.55;455659;116;922606;-75
2022/10/31 03:46:18;;;;;;;3.31;1.59;;;;;;;9.48;73.75;99877.75;456408;114;922647;-77
2022/10/31 03:47:21;;;;;;;3.31;1.58;;;;;;;9.48;73.75;99883.19;465368;114;922556;-75
2022/10/31 03:48:25;;;;;;;2.39;1.82;;;;;;;9.46;73.75;99886.13;465343;114;923409;-76
2022/10/31 03:49:30;;;;;;;3.28;1.98;;;;;;;9.46;73.82;99882.57;456353;116;930353;-76
2022/10/31 03:50:40;;;;;;;4.43;1.94;;;;;;;9.46;73.82;99882.57;464652;114;930422;-76
2022/10/31 03:52:04;;;;;;;3.31;1.68;;;;;;;9.44;73.87;99882.79;464016;114;922564;-77
2022/10/31 03:53:13;;;;;;;3.27;1.37;;;;;;;9.44;73.89;99893.67;463587;114;923018;-76
2022/10/31 03:54:26;;;;;;;2.63;1.57;;;;;;;9.42;73.95;99887.64;463777;114;922439;-77
2022/10/31 03:55:52;;;;;;;1.70;1.38;;;;;;;9.41;73.92;99896.02;465331;113;922647;-76
2022/10/31 03:56:59;;;;;;;3.08;1.72;;;;;;;9.40;73.99;99887.02;465174;114;922870;-77
2022/10/31 03:58:08;;;;;;;3.11;1.52;;;;;;;9.37;74.07;99890.17;464825;114;922508;-75
2022/10/31 03:59:18;;;;;;;2.68;1.59;;;;;;;9.36;74.07;99885.81;465380;114;922679;-75
2022/10/31 04:00:21;;;;;;;2.24;1.65;;;;;;;9.37;74.13;99876.57;465088;114;923005;-75
2022/10/31 04:01:29;;;;;;;2.28;1.74;;;;;;;9.37;74.17;99883.93;465250;114;922534;-77
2022/10/31 04:02:36;;;;;;;2.86;1.69;;;;;;;9.37;74.19;99876.57;465358;114;922523;-74
2022/10/31 04:03:39;;;;;;;3.62;2.02;;;;;;;9.38;74.27;99880.96;465260;114;922494;-76
2022/10/31 04:04:45;;;;;;;3.51;1.75;;;;;;;9.39;74.19;99887.23;465471;114;922989;-76
2022/10/31 04:05:51;;;;;;;2.52;1.78;;;;;;;9.40;74.17;99883.47;465321;114;922546;-75
2022/10/31 04:06:57;;;;;;;2.07;1.82;;;;;;;9.40;74.20;99886.19;465323;114;923115;-76
2022/10/31 04:08:03;;;;;;;3.58;1.77;;;;;;;9.41;74.16;99887.86;465279;114;923945;-75
2022/10/31 04:09:09;;;;;;;2.58;1.82;;;;;;;9.41;74.13;99879.70;465283;114;922486;-76
2022/10/31 04:10:16;;;;;;;3.64;1.99;;;;;;;9.41;74.13;99880.53;465351;114;922885;-76
2022/10/31 04:11:23;;;;;;;3.38;1.99;;;;;;;9.42;74.18;99873.20;465336;114;922705;-76
2022/10/31 04:12:31;;;;;;;3.33;1.71;;;;;;;9.42;74.12;99878.64;461932;114;922433;-76
2022/10/31 04:13:44;;;;;;;3.01;1.66;;;;;;;9.43;74.19;99880.28;463865;114;923240;-76
2022/10/31 04:14:50;;;;;;;3.42;2.05;;;;;;;9.43;74.22;99880.28;465198;114;922912;-77
2022/10/31 04:15:55;;;;;;;3.29;1.97;;;;;;;9.44;74.15;99890.95;465414;113;922516;-76
2022/10/31 04:16:59;;;;;;;2.19;1.67;;;;;;;9.45;74.21;99889.06;465426;114;922486;-76
2022/10/31 04:18:05;;;;;;;2.85;1.54;;;;;;;9.47;74.15;99892.41;464590;114;922956;-76
2022/10/31 04:19:08;;;;;;;2.74;1.39;;;;;;;9.48;74.16;99903.05;465333;114;922636;-76
2022/10/31 04:20:16;;;;;;;2.76;1.45;;;;;;;9.47;74.19;99885.08;465277;114;923040;-76
2022/10/31 04:21:19;;;;;;;2.62;1.81;;;;;;;9.50;74.15;99894.66;465225;114;922529;-77
2022/10/31 04:22:24;;;;;;;2.64;1.66;;;;;;;9.52;74.17;99898.00;465232;114;923020;-76
2022/10/31 04:23:28;;;;;;;2.57;1.80;;;;;;;9.51;74.24;99894.45;465262;114;930942;-77
2022/10/31 04:24:32;;;;;;;3.69;1.98;;;;;;;9.52;74.44;99896.12;465347;114;922740;-78
2022/10/31 04:25:35;;;;;;;1.87;1.47;;;;;;;9.52;74.61;99898.84;465473;114;922472;-77
2022/10/31 04:26:38;;;;;;;2.89;1.65;;;;;;;9.53;74.72;99902.39;465450;114;922720;-76
2022/10/31 04:27:41;;;;;;;2.46;1.64;;;;;;;9.52;74.89;99903.45;465287;114;924456;-76
2022/10/31 04:28:45;;;;;;;3.67;1.81;;;;;;;9.52;74.96;99900.73;455612;116;930369;-75
2022/10/31 04:29:48;;;;;;;2.84;1.56;;;;;;;9.50;74.98;99900.94;447273;118;923265;-76
2022/10/31 04:30:53;;;;;;;2.48;2.16;;;;;;;9.49;75.11;99912.05;465210;114;922503;-76
2022/10/31 04:31:56;;;;;;;2.61;1.73;;;;;;;9.47;75.25;99908.73;467789;112;922993;-76
2022/10/31 04:32:59;;;;;;;2.57;1.79;;;;;;;9.47;75.36;99909.56;473710;112;922991;-76
2022/10/31 04:34:03;;;;;;;3.65;1.98;;;;;;;9.46;75.48;99912.50;469589;112;922911;-76
2022/10/31 04:35:06;;;;;;;2.26;1.42;;;;;;;9.45;75.73;99905.39;455648;116;930461;-76
2022/10/31 04:36:09;;;;;;;2.09;1.66;;;;;;;9.45;75.67;99917.11;456162;114;923223;-76
2022/10/31 04:37:13;;;;;;;2.19;1.80;;;;;;;9.45;75.77;99908.11;465419;114;922490;-76
2022/10/31 04:38:16;;;;;;;2.50;1.37;;;;;;;9.44;75.91;99915.44;465368;114;922985;-76
2022/10/31 04:39:19;;;;;;;3.09;1.59;;;;;;;9.44;76.04;99914.61;455717;115;923166;-76
2022/10/31 04:40:26;;;;;;;2.06;1.47;;;;;;;9.43;76.05;99918.38;454836;114;930404;-75
2022/10/31 04:41:43;;;;;;;3.54;2.11;;;;;;;9.42;76.16;99925.73;455029;116;923146;-76
2022/10/31 04:42:48;;;;;;;2.51;1.63;;;;;;;9.42;76.19;99939.34;458371;114;922508;-75
2022/10/31 04:43:51;;;;;;;3.60;1.98;;;;;;;9.43;76.31;99938.26;465461;114;922525;-76
2022/10/31 04:44:54;;;;;;;2.87;1.61;;;;;;;9.43;76.48;99943.70;465466;114;922827;-76
2022/10/31 04:45:57;;;;;;;3.00;1.84;;;;;;;9.43;76.40;99931.98;465499;114;922825;-75
2022/10/31 04:47:00;;;;;;;4.12;1.85;;;;;;;9.43;76.30;99940.98;465474;114;922494;-75
2022/10/31 04:48:04;;;;;;;4.86;1.78;;;;;;;9.42;76.36;99939.34;465432;114;922439;-76
2022/10/31 04:49:08;;;;;;;2.13;1.60;;;;;;;9.44;76.36;99945.38;455660;115;923234;-75
2022/10/31 04:50:12;;;;;;;1.51;1.24;;;;;;;9.43;76.25;99943.70;449441;114;922697;-75
2022/10/31 04:51:15;;;;;;;2.21;1.22;;;;;;;9.45;76.22;99947.05;460851;114;922651;-76
2022/10/31 04:52:18;;;;;;;1.73;0.97;;;;;;;9.46;76.08;99942.44;464169;112;922692;-75
2022/10/31 04:53:22;;;;;;;1.96;1.04;;;;;;;9.48;75.95;99949.30;473866;112;922643;-75
2022/10/31 04:54:26;;;;;;;1.84;1.29;;;;;;;9.49;75.65;99950.14;468385;112;922489;-75
2022/10/31 04:55:47;;;;;;;1.59;0.98;;;;;;;9.48;75.59;99946.58;473630;112;922603;-76
2022/10/31 04:56:52;;;;;;;1.26;0.84;;;;;;;9.49;74.95;99955.58;473443;112;923260;-75
2022/10/31 04:57:57;;;;;;;1.94;0.89;;;;;;;9.48;74.83;99956.66;473669;112;922867;-76
2022/10/31 04:59:01;;;;;;;1.32;0.78;;;;;;;9.46;74.87;99958.77;463758;114;922880;-76
2022/10/31 05:00:07;;;;;;;1.61;0.98;;;;;;;9.46;74.88;99961.48;464338;112;922714;-76
2022/10/31 05:01:10;;;;;;;0.92;0.68;;;;;;;9.45;74.82;99957.92;473768;112;922988;-76
2022/10/31 05:02:14;;;;;;;0.86;0.79;;;;;;;9.47;74.67;99963.16;473750;112;922526;-76
2022/10/31 05:03:24;;;;;;;;;;;;;;;9.47;74.53;99965.88;476814;112;922684;-76
2022/10/31 05:04:27;;;;;;;1.23;1.03;;;;;;;9.47;74.55;99969.44;473803;112;922407;-76
2022/10/31 05:05:31;;;;;;;2.07;0.99;;;;;;;9.46;74.26;99975.92;473835;112;922958;-76
2022/10/31 05:06:36;;;;;;;1.36;0.91;;;;;;;9.44;74.00;99969.02;473674;112;922507;-75
2022/10/31 05:07:42;;;;;;;1.71;0.79;;;;;;;9.42;73.69;99982.88;473724;112;922496;-76
2022/10/31 05:08:45;;;;;;;1.56;1.12;;;;;;;9.39;73.55;99980.58;469885;112;922569;-77
2022/10/31 05:09:48;;;;;;;1.44;0.90;;;;;;;9.37;73.63;99996.28;468962;113;922957;-76
2022/10/31 05:10:53;;;;;;;1.63;0.73;;;;;;;9.36;73.41;99980.20;468871;113;922744;-76
2022/10/31 05:11:57;;;;;;;1.37;0.91;;;;;;;9.35;73.43;99984.81;468929;113;922645;-76
2022/10/31 05:13:03;;;;;;;1.34;0.82;;;;;;;9.34;73.36;99994.02;463525;113;922872;-76